createdAt,value
2022-10-25T00:00:29.708Z,73.20
2022-10-25T00:02:59.144Z,73.30
2022-10-25T00:05:27.407Z,73.20
2022-10-25T00:07:57.546Z,73.20
2022-10-25T00:10:25.955Z,73.20
2022-10-25T00:12:54.051Z,73.20
2022-10-25T00:15:22.298Z,73.10
2022-10-25T00:17:50.963Z,73.10
2022-10-25T00:20:21.382Z,73.20
2022-10-25T00:22:49.759Z,73.00
2022-10-25T00:25:18.068Z,73.10
2022-10-25T00:27:46.155Z,73.00
2022-10-25T00:30:15.284Z,73.10
2022-10-25T00:32:43.514Z,73.00
2022-10-25T00:35:11.854Z,73.00
2022-10-25T00:37:41.379Z,73.00
2022-10-25T00:40:10.423Z,73.00
2022-10-25T00:42:38.531Z,73.00
2022-10-25T00:45:20.556Z,73.00
2022-10-25T00:47:53.707Z,73.00
2022-10-25T00:50:35.590Z,73.00
2022-10-25T00:53:09.488Z,72.90
2022-10-25T00:55:40.599Z,72.90
2022-10-25T00:58:12.493Z,72.90
2022-10-25T01:00:40.985Z,72.90
2022-10-25T01:03:09.512Z,72.90
2022-10-25T01:05:38.595Z,72.90
2022-10-25T01:08:08.374Z,72.80
2022-10-25T01:10:36.524Z,72.90
2022-10-25T01:13:05.513Z,72.80
2022-10-25T01:15:41.886Z,72.80
2022-10-25T01:18:16.485Z,72.80
2022-10-25T01:21:08.642Z,72.80
2022-10-25T01:24:02.365Z,72.70
2022-10-25T01:26:56.105Z,72.70
2022-10-25T01:30:05.721Z,72.70
2022-10-25T01:32:45.432Z,72.70
2022-10-25T01:35:23.208Z,72.70
2022-10-25T01:38:19.287Z,72.70
2022-10-25T01:40:56.782Z,72.70
2022-10-25T01:43:33.102Z,72.70
2022-10-25T01:46:06.688Z,72.70
2022-10-25T01:48:42.752Z,72.60
2022-10-25T01:51:13.581Z,72.60
2022-10-25T01:53:46.075Z,72.60
2022-10-25T01:56:20.715Z,72.60
2022-10-25T01:59:25.296Z,72.50
2022-10-25T02:02:02.301Z,72.50
2022-10-25T02:04:44.825Z,72.60
2022-10-25T02:07:18.375Z,72.50
2022-10-25T02:09:54.929Z,72.50
2022-10-25T02:12:31.218Z,72.40
2022-10-25T02:15:08.698Z,72.40
2022-10-25T02:17:42.500Z,72.40
2022-10-25T02:20:15.950Z,72.40
2022-10-25T02:22:47.609Z,72.40
2022-10-25T02:25:17.289Z,72.40
2022-10-25T02:27:47.012Z,72.40
2022-10-25T02:30:15.498Z,72.40
2022-10-25T02:32:44.067Z,72.40
2022-10-25T02:35:15.862Z,72.40
2022-10-25T02:37:44.230Z,72.40
2022-10-25T02:40:13.523Z,72.30
2022-10-25T02:42:41.641Z,72.30
2022-10-25T02:45:10.453Z,72.30
2022-10-25T02:47:38.644Z,72.30
2022-10-25T02:50:07.356Z,72.30
2022-10-25T02:52:36.825Z,72.20
2022-10-25T02:55:05.431Z,72.20
2022-10-25T02:57:34.771Z,72.20
2022-10-25T03:00:03.150Z,72.30
2022-10-25T03:02:31.328Z,72.20
2022-10-25T03:04:59.426Z,72.20
2022-10-25T03:07:27.508Z,72.20
2022-10-25T03:09:57.003Z,72.20
2022-10-25T03:12:25.123Z,72.20
2022-10-25T03:14:53.174Z,72.20
2022-10-25T03:17:22.112Z,72.20
2022-10-25T03:19:50.213Z,72.10
2022-10-25T03:22:18.276Z,72.10
2022-10-25T03:24:46.394Z,72.10
2022-10-25T03:27:16.205Z,72.10
2022-10-25T03:29:44.309Z,72.10
2022-10-25T03:32:12.406Z,72.00
2022-10-25T03:34:40.486Z,72.10
2022-10-25T03:37:08.533Z,72.00
2022-10-25T03:39:36.628Z,72.10
2022-10-25T03:42:04.810Z,72.00
2022-10-25T03:44:34.274Z,72.00
2022-10-25T03:47:02.388Z,72.00
2022-10-25T03:49:30.425Z,72.00
2022-10-25T03:52:01.229Z,72.00
2022-10-25T03:54:32.224Z,72.00
2022-10-25T03:57:00.486Z,71.90
2022-10-25T03:59:28.904Z,72.00
2022-10-25T04:02:00.720Z,72.00
2022-10-25T04:04:29.068Z,71.90
2022-10-25T04:06:57.147Z,71.90
2022-10-25T04:09:25.208Z,71.90
2022-10-25T04:11:53.319Z,71.90
2022-10-25T04:14:21.773Z,71.90
2022-10-25T04:16:49.950Z,71.80
2022-10-25T04:19:19.553Z,71.90
2022-10-25T04:21:47.678Z,71.80
2022-10-25T04:24:15.757Z,71.80
2022-10-25T04:26:43.850Z,71.90
2022-10-25T04:29:12.845Z,71.80
2022-10-25T04:31:40.911Z,71.80
2022-10-25T04:34:09.114Z,71.80
2022-10-25T04:36:39.047Z,71.80
2022-10-25T04:39:07.527Z,71.80
2022-10-25T04:41:35.739Z,71.80
2022-10-25T04:44:03.815Z,71.80
2022-10-25T04:46:31.929Z,71.80
2022-10-25T04:48:59.996Z,71.80
2022-10-25T04:51:28.172Z,71.80
2022-10-25T04:53:58.074Z,71.90
2022-10-25T04:56:26.166Z,71.90
2022-10-25T04:58:54.277Z,72.00
2022-10-25T05:01:22.398Z,72.00
2022-10-25T05:03:50.647Z,72.10
2022-10-25T05:06:20.472Z,72.20
2022-10-25T05:08:50.012Z,72.10
2022-10-25T05:11:21.602Z,72.30
2022-10-25T05:13:49.850Z,72.40
2022-10-25T05:16:21.691Z,72.50
2022-10-25T05:18:50.344Z,72.40
2022-10-25T05:21:19.777Z,72.30
2022-10-25T05:23:48.238Z,72.30
2022-10-25T05:26:18.471Z,72.10
2022-10-25T05:28:50.470Z,72.00
2022-10-25T05:31:20.547Z,72.00
2022-10-25T05:33:51.148Z,72.10
2022-10-25T05:36:19.786Z,72.00
2022-10-25T05:38:48.187Z,72.00
2022-10-25T05:41:18.135Z,72.00
2022-10-25T05:43:48.006Z,71.90
2022-10-25T05:46:18.081Z,71.90
2022-10-25T05:48:48.917Z,71.90
2022-10-25T05:51:36.161Z,72.00
2022-10-25T05:54:06.800Z,72.00
2022-10-25T05:56:35.921Z,72.00
2022-10-25T05:59:08.708Z,72.00
2022-10-25T06:01:38.116Z,72.00
2022-10-25T06:04:06.890Z,72.00
2022-10-25T06:06:35.102Z,72.00
2022-10-25T06:09:03.444Z,71.90
2022-10-25T06:11:31.791Z,71.80
2022-10-25T06:14:00.428Z,72.00
2022-10-25T06:16:30.106Z,72.10
2022-10-25T06:18:58.522Z,71.80
2022-10-25T06:21:28.663Z,71.80
2022-10-25T06:23:57.546Z,71.70
2022-10-25T06:26:27.548Z,71.70
2022-10-25T06:28:57.500Z,71.50
2022-10-25T06:31:26.172Z,71.30
2022-10-25T06:33:55.709Z,71.30
2022-10-25T06:36:26.943Z,71.10
2022-10-25T06:38:55.650Z,70.90
2022-10-25T06:41:25.262Z,70.60
2022-10-25T06:43:53.433Z,70.60
2022-10-25T06:46:23.758Z,70.60
2022-10-25T06:48:53.644Z,70.50
2022-10-25T06:51:23.887Z,70.40
2022-10-25T06:53:55.247Z,70.40
2022-10-25T06:56:24.047Z,70.20
2022-10-25T06:58:52.518Z,70.30
2022-10-25T07:01:22.778Z,70.20
2022-10-25T07:03:54.512Z,70.20
2022-10-25T07:06:26.255Z,70.10
2022-10-25T07:08:55.974Z,70.10
2022-10-25T07:11:25.313Z,70.00
2022-10-25T07:13:53.707Z,69.90
2022-10-25T07:16:22.806Z,69.90
2022-10-25T07:18:50.947Z,69.90
2022-10-25T07:21:21.177Z,70.00
2022-10-25T07:23:51.791Z,69.80
2022-10-25T07:26:22.166Z,69.80
2022-10-25T07:28:52.292Z,69.80
2022-10-25T07:31:22.992Z,69.80
2022-10-25T07:33:51.971Z,69.80
2022-10-25T07:36:20.252Z,69.80
2022-10-25T07:38:49.819Z,69.80
2022-10-25T07:41:18.077Z,69.70
2022-10-25T07:43:46.207Z,69.80
2022-10-25T07:46:14.327Z,69.70
2022-10-25T07:48:42.446Z,69.60
2022-10-25T07:51:14.114Z,69.60
2022-10-25T07:53:42.411Z,69.50
2022-10-25T07:56:17.433Z,69.30
2022-10-25T07:58:48.801Z,69.30
2022-10-25T08:01:21.906Z,69.30
2022-10-25T08:03:50.072Z,69.30
2022-10-25T08:06:18.476Z,69.30
2022-10-25T08:08:46.634Z,69.30
2022-10-25T08:11:17.187Z,69.30
2022-10-25T08:13:45.376Z,69.40
2022-10-25T08:16:13.441Z,69.40
2022-10-25T08:18:43.445Z,69.30
2022-10-25T08:21:11.568Z,69.40
2022-10-25T08:23:39.634Z,69.30
2022-10-25T08:26:07.968Z,69.30
2022-10-25T08:28:37.457Z,69.30
2022-10-25T08:31:05.938Z,69.30
2022-10-25T08:33:34.467Z,69.30
2022-10-25T08:36:03.133Z,69.30
2022-10-25T08:38:31.575Z,69.30
2022-10-25T08:41:06.764Z,69.30
2022-10-25T08:44:08.808Z,69.20
2022-10-25T08:46:40.813Z,69.20
2022-10-25T08:49:19.921Z,69.20
2022-10-25T08:51:50.602Z,69.20
2022-10-25T08:54:25.250Z,69.10
2022-10-25T08:57:14.572Z,69.10
2022-10-25T08:59:48.336Z,69.00
2022-10-25T09:02:29.249Z,69.10
2022-10-25T09:05:02.461Z,69.10
2022-10-25T09:07:56.405Z,69.00
2022-10-25T09:10:36.076Z,69.10
2022-10-25T09:13:12.149Z,69.00
2022-10-25T09:15:53.529Z,69.00
2022-10-25T09:18:30.766Z,69.00
2022-10-25T09:21:01.830Z,69.00
2022-10-25T09:23:32.415Z,68.80
2022-10-25T09:26:07.276Z,68.80
2022-10-25T09:28:52.244Z,68.80
2022-10-25T09:31:24.846Z,68.80
2022-10-25T09:34:04.667Z,68.80
2022-10-25T09:36:41.860Z,68.80
2022-10-25T09:39:18.105Z,68.90
2022-10-25T09:41:50.736Z,68.90
2022-10-25T09:44:28.928Z,69.10
2022-10-25T09:47:04.032Z,68.80
2022-10-25T09:49:39.672Z,68.90
2022-10-25T09:52:19.349Z,69.00
2022-10-25T09:54:52.411Z,69.10
2022-10-25T09:57:20.621Z,69.00
2022-10-25T09:59:51.838Z,68.90
2022-10-25T10:02:25.325Z,69.00
2022-10-25T10:04:54.211Z,69.00
2022-10-25T10:07:26.060Z,68.90
2022-10-25T10:09:58.218Z,69.10
2022-10-25T10:12:30.964Z,69.00
2022-10-25T10:15:02.760Z,68.90
2022-10-25T10:17:32.742Z,68.80
2022-10-25T10:20:13.868Z,68.80
2022-10-25T10:22:51.548Z,68.80
2022-10-25T10:25:22.608Z,68.70
2022-10-25T10:27:53.206Z,68.60
2022-10-25T10:30:25.135Z,68.40
2022-10-25T10:33:00.784Z,68.20
2022-10-25T10:35:32.003Z,67.90
2022-10-25T10:38:22.211Z,67.50
2022-10-25T10:40:51.903Z,67.20
2022-10-25T10:43:31.966Z,66.90
2022-10-25T10:46:05.452Z,66.60
2022-10-25T10:48:42.036Z,66.30
2022-10-25T10:51:32.015Z,66.10
2022-10-25T10:54:25.418Z,65.70
2022-10-25T10:56:58.878Z,65.60
2022-10-25T10:59:35.121Z,65.40
2022-10-25T11:02:37.107Z,65.30
2022-10-25T11:05:21.815Z,65.10
2022-10-25T11:07:56.225Z,64.90
2022-10-25T11:10:27.500Z,64.80
2022-10-25T11:13:14.035Z,64.70
2022-10-25T11:16:17.917Z,64.60
2022-10-25T11:19:01.749Z,64.50
2022-10-25T11:21:44.742Z,64.50
2022-10-25T11:24:26.440Z,64.40
2022-10-25T11:27:05.084Z,64.40
2022-10-25T11:29:58.723Z,64.40
2022-10-25T11:33:03.288Z,64.40
2022-10-25T11:35:50.058Z,64.40
2022-10-25T11:38:31.387Z,64.50
2022-10-25T11:41:07.857Z,64.50
2022-10-25T11:43:52.598Z,64.50
2022-10-25T11:46:30.826Z,64.60
2022-10-25T11:49:18.334Z,64.60
2022-10-25T11:51:59.400Z,64.60
2022-10-25T11:54:37.222Z,64.60
2022-10-25T11:57:15.477Z,64.60
2022-10-25T11:59:57.501Z,64.40
2022-10-25T12:02:43.495Z,64.40
2022-10-25T12:05:26.329Z,64.40
2022-10-25T12:08:00.126Z,64.30
2022-10-25T12:10:35.300Z,64.10
2022-10-25T12:13:12.471Z,64.00
2022-10-25T12:15:43.341Z,64.00
2022-10-25T12:18:17.263Z,63.90
2022-10-25T12:20:47.773Z,64.00
2022-10-25T12:23:20.115Z,64.00
2022-10-25T12:25:52.407Z,64.00
2022-10-25T12:28:28.260Z,64.00
2022-10-25T12:31:01.696Z,63.80
2022-10-25T12:33:37.134Z,63.70
2022-10-25T12:36:08.236Z,63.60
2022-10-25T12:38:37.849Z,63.50
2022-10-25T12:41:11.025Z,63.50
2022-10-25T12:43:48.681Z,63.40
2022-10-25T12:46:29.871Z,63.40
2022-10-25T12:49:28.529Z,63.30
2022-10-25T12:52:20.284Z,63.30
2022-10-25T12:55:02.821Z,63.40
2022-10-25T12:57:39.356Z,63.30
2022-10-25T13:00:13.763Z,63.30
2022-10-25T13:03:18.619Z,63.40
2022-10-25T13:06:26.661Z,63.40
2022-10-25T13:08:56.658Z,63.60
2022-10-25T13:11:34.131Z,63.60
2022-10-25T13:14:04.687Z,63.80
2022-10-25T13:16:34.687Z,63.90
2022-10-25T13:19:53.149Z,63.90
2022-10-25T13:22:37.961Z,64.10
2022-10-25T13:25:17.466Z,64.40
2022-10-25T13:28:18.115Z,64.70
2022-10-25T13:30:47.627Z,64.60
2022-10-25T13:33:36.139Z,64.90
2022-10-25T13:36:05.920Z,65.10
2022-10-25T13:38:39.753Z,65.10
2022-10-25T13:41:17.284Z,65.20
2022-10-25T13:44:19.732Z,65.10
2022-10-25T13:46:49.758Z,65.30
2022-10-25T13:49:36.783Z,65.40
2022-10-25T13:52:08.295Z,65.40
2022-10-25T13:54:47.737Z,65.50
2022-10-25T13:57:48.434Z,65.60
2022-10-25T14:00:32.076Z,65.60
2022-10-25T14:03:47.273Z,65.80
2022-10-25T14:06:29.933Z,65.70
2022-10-25T14:09:08.780Z,65.70
2022-10-25T14:11:42.044Z,65.70
2022-10-25T14:14:23.311Z,65.70
2022-10-25T14:17:01.629Z,65.70
2022-10-25T14:19:37.737Z,65.70
2022-10-25T14:22:15.390Z,65.60
2022-10-25T14:24:47.741Z,65.60
2022-10-25T14:27:31.555Z,65.70
2022-10-25T14:30:26.191Z,65.60
2022-10-25T14:32:57.112Z,65.60
2022-10-25T14:35:32.708Z,65.70
2022-10-25T14:38:01.488Z,65.60
2022-10-25T14:40:31.814Z,65.60
2022-10-25T14:43:21.582Z,65.60
2022-10-25T14:45:57.314Z,65.60
2022-10-25T14:48:25.567Z,65.70
2022-10-25T14:50:57.838Z,65.70
2022-10-25T14:53:28.476Z,65.70
2022-10-25T14:55:59.312Z,65.70
2022-10-25T14:58:28.727Z,65.70
2022-10-25T15:00:59.880Z,65.80
2022-10-25T15:03:30.351Z,65.80
2022-10-25T15:06:00.870Z,65.90
2022-10-25T15:08:29.890Z,66.00
2022-10-25T15:11:04.291Z,66.00
2022-10-25T15:13:42.740Z,66.00
2022-10-25T15:16:32.203Z,65.90
2022-10-25T15:19:19.150Z,66.00
2022-10-25T15:21:50.601Z,66.00
2022-10-25T15:24:22.250Z,66.10
2022-10-25T15:26:59.685Z,66.20
2022-10-25T15:32:22.191Z,66.40
2022-10-25T15:34:52.351Z,66.40
2022-10-25T15:37:23.639Z,66.40
2022-10-25T15:39:52.901Z,66.50
2022-10-25T15:42:22.509Z,66.40
2022-10-25T15:44:50.650Z,66.50
2022-10-25T15:47:33.269Z,66.50
2022-10-25T15:50:04.293Z,66.60
2022-10-25T15:52:33.772Z,66.70
2022-10-25T15:55:01.832Z,66.80
2022-10-25T15:57:29.988Z,66.90
2022-10-25T15:59:58.169Z,66.80
2022-10-25T16:02:28.483Z,66.80
2022-10-25T16:04:56.767Z,66.70
2022-10-25T16:07:24.992Z,66.60
2022-10-25T16:09:54.460Z,66.50
2022-10-25T16:12:27.015Z,66.30
2022-10-25T16:14:55.243Z,66.20
2022-10-25T16:17:23.392Z,66.00
2022-10-25T16:19:51.530Z,65.80
2022-10-25T16:22:19.624Z,65.70
2022-10-25T16:24:47.703Z,65.70
2022-10-25T16:27:17.219Z,65.60
2022-10-25T16:29:47.048Z,65.40
2022-10-25T16:32:15.287Z,65.40
2022-10-25T16:34:46.037Z,65.40
2022-10-25T16:37:14.194Z,65.70
2022-10-25T16:39:42.279Z,65.70
2022-10-25T16:42:29.481Z,65.70
2022-10-25T16:44:59.102Z,65.70
2022-10-25T16:47:28.003Z,65.70
2022-10-25T16:49:56.131Z,65.70
2022-10-25T16:52:24.296Z,65.70
2022-10-25T16:54:52.466Z,65.70
2022-10-25T16:57:20.601Z,65.70
2022-10-25T16:59:50.592Z,65.80
2022-10-25T17:02:21.031Z,65.80
2022-10-25T17:04:49.620Z,66.10
2022-10-25T17:07:18.168Z,66.10
2022-10-25T17:09:46.317Z,66.10
2022-10-25T17:12:14.404Z,66.10
2022-10-25T17:14:42.613Z,66.10
2022-10-25T17:17:12.110Z,66.10
2022-10-25T17:19:40.305Z,66.20
2022-10-25T17:22:08.784Z,66.30
2022-10-25T17:24:37.667Z,66.40
2022-10-25T17:27:06.996Z,66.30
2022-10-25T17:29:35.650Z,66.30
2022-10-25T17:32:03.755Z,66.10
2022-10-25T17:34:33.285Z,66.30
2022-10-25T17:37:02.246Z,66.20
2022-10-25T17:39:30.760Z,66.40
2022-10-25T17:41:58.844Z,66.40
2022-10-25T17:44:27.061Z,66.30
2022-10-25T17:46:57.290Z,66.10
2022-10-25T17:49:27.742Z,66.10
2022-10-25T17:51:57.260Z,66.10
2022-10-25T17:54:25.409Z,66.20
2022-10-25T17:56:58.508Z,66.20
2022-10-25T17:59:27.734Z,66.30
2022-10-25T18:01:56.150Z,66.40
2022-10-25T18:04:25.190Z,66.50
2022-10-25T18:06:53.273Z,66.90
2022-10-25T18:09:22.835Z,68.70
2022-10-25T18:11:50.937Z,68.70
2022-10-25T18:14:19.079Z,69.00
2022-10-25T18:16:47.347Z,69.30
2022-10-25T18:19:16.050Z,69.30
2022-10-25T18:21:44.133Z,69.40
2022-10-25T18:24:13.941Z,69.60
2022-10-25T18:26:43.471Z,69.50
2022-10-25T18:29:12.232Z,69.50
2022-10-25T18:31:40.419Z,69.50
2022-10-25T18:34:08.648Z,69.30
2022-10-25T18:36:36.876Z,69.40
2022-10-25T18:39:05.220Z,69.40
2022-10-25T18:41:34.973Z,69.50
2022-10-25T18:44:04.656Z,69.50
2022-10-25T18:46:33.004Z,69.50
2022-10-25T18:49:01.494Z,69.40
2022-10-25T18:51:30.313Z,69.50
2022-10-25T18:54:00.353Z,69.40
2022-10-25T18:56:31.779Z,69.40
2022-10-25T18:59:00.030Z,69.30
2022-10-25T19:01:32.672Z,69.40
2022-10-25T19:04:02.245Z,69.40
2022-10-25T19:06:31.240Z,69.30
2022-10-25T19:08:59.492Z,69.30
2022-10-25T19:11:27.712Z,69.30
2022-10-25T19:13:56.484Z,69.30
2022-10-25T19:16:25.345Z,69.30
2022-10-25T19:18:54.866Z,69.20
2022-10-25T19:21:23.147Z,69.20
2022-10-25T19:23:54.117Z,69.20
2022-10-25T19:26:23.142Z,69.10
2022-10-25T19:29:00.153Z,69.10
2022-10-25T19:31:29.290Z,69.10
2022-10-25T19:34:00.531Z,69.10
2022-10-25T19:36:28.897Z,69.00
2022-10-25T19:38:57.277Z,69.00
2022-10-25T19:41:26.414Z,69.10
2022-10-25T19:43:56.369Z,69.10
2022-10-25T19:46:24.808Z,69.10
2022-10-25T19:48:52.947Z,69.10
2022-10-25T19:51:22.519Z,69.10
2022-10-25T19:53:50.891Z,69.10
2022-10-25T19:56:20.677Z,69.20
2022-10-25T19:58:49.209Z,69.20
2022-10-25T20:01:20.234Z,69.20
2022-10-25T20:03:51.376Z,69.20
2022-10-25T20:06:24.337Z,69.20
2022-10-25T20:08:55.377Z,69.30
2022-10-25T20:11:24.827Z,69.20
2022-10-25T20:13:55.126Z,69.20
2022-10-25T20:16:23.685Z,69.30
2022-10-25T20:18:51.880Z,69.30
2022-10-25T20:21:21.758Z,69.30
2022-10-25T20:23:54.944Z,69.30
2022-10-25T20:26:25.709Z,69.30
2022-10-25T20:28:54.556Z,69.50
2022-10-25T20:31:24.031Z,69.50
2022-10-25T20:33:53.115Z,69.40
2022-10-25T20:36:21.529Z,69.90
2022-10-25T20:38:49.660Z,70.30
2022-10-25T20:41:19.460Z,70.70
2022-10-25T20:43:51.007Z,70.80
2022-10-25T20:46:19.724Z,70.80
2022-10-25T20:48:47.917Z,70.80
2022-10-25T20:51:16.655Z,70.70
2022-10-25T20:53:45.650Z,70.60
2022-10-25T20:56:14.599Z,70.50
2022-10-25T20:58:42.845Z,70.50
2022-10-25T21:01:12.974Z,70.40
2022-10-25T21:03:41.218Z,70.40
2022-10-25T21:06:12.311Z,70.40
2022-10-25T21:08:42.046Z,70.40
2022-10-25T21:11:13.390Z,70.40
2022-10-25T21:13:42.299Z,70.50
2022-10-25T21:16:13.877Z,70.50
2022-10-25T21:18:42.755Z,70.40
2022-10-25T21:21:17.795Z,70.20
2022-10-25T21:23:46.393Z,70.20
2022-10-25T21:26:14.492Z,70.30
2022-10-25T21:28:43.010Z,70.30
2022-10-25T21:31:14.119Z,70.20
2022-10-25T21:33:49.701Z,70.30
2022-10-25T21:36:20.189Z,70.30
2022-10-25T21:38:48.373Z,70.40
2022-10-25T21:41:20.801Z,70.40
2022-10-25T21:43:50.675Z,70.40
2022-10-25T21:46:21.836Z,70.40
2022-10-25T21:48:51.022Z,70.50
2022-10-25T21:51:19.716Z,70.50
2022-10-25T21:53:48.022Z,70.50
2022-10-25T21:56:18.524Z,70.50
2022-10-25T21:58:48.968Z,70.60
2022-10-25T22:01:20.392Z,70.60
2022-10-25T22:03:48.986Z,70.40
2022-10-25T22:06:19.774Z,70.50
2022-10-25T22:08:48.189Z,70.40
2022-10-25T22:11:18.063Z,70.30
2022-10-25T22:13:46.572Z,70.20
2022-10-25T22:16:16.289Z,70.20
2022-10-25T22:18:50.629Z,70.10
2022-10-25T22:21:19.184Z,70.10
2022-10-25T22:23:47.253Z,70.10
2022-10-25T22:26:17.226Z,70.00
2022-10-25T22:28:45.642Z,70.00
2022-10-25T22:31:16.487Z,69.90
2022-10-25T22:33:46.729Z,70.00
2022-10-25T22:36:16.371Z,69.90
2022-10-25T22:38:45.052Z,69.90
2022-10-25T22:41:14.488Z,70.00
2022-10-25T22:43:43.434Z,70.00
2022-10-25T22:46:13.705Z,69.90
2022-10-25T22:48:43.319Z,69.90
2022-10-25T22:51:13.924Z,69.90
2022-10-25T22:53:44.060Z,69.90
2022-10-25T22:56:14.103Z,69.90
2022-10-25T22:58:47.916Z,69.90
2022-10-25T23:01:17.811Z,69.90
2022-10-25T23:03:48.769Z,69.80
2022-10-25T23:06:20.206Z,69.80
2022-10-25T23:08:49.064Z,69.80
2022-10-25T23:11:19.405Z,69.80
2022-10-25T23:13:47.884Z,69.80
2022-10-25T23:16:17.010Z,69.80
2022-10-25T23:18:45.508Z,69.70
2022-10-25T23:21:18.605Z,69.70
2022-10-25T23:23:47.460Z,69.70
2022-10-25T23:26:18.460Z,69.70
2022-10-25T23:28:46.573Z,69.70
2022-10-25T23:31:15.372Z,69.60
2022-10-25T23:33:43.936Z,69.70
2022-10-25T23:36:14.230Z,69.60
2022-10-25T23:38:44.489Z,69.60
2022-10-25T23:41:13.157Z,69.60
2022-10-25T23:43:41.270Z,69.60
2022-10-25T23:46:10.224Z,69.60
2022-10-25T23:48:38.621Z,69.60
2022-10-25T23:51:09.036Z,69.60
2022-10-25T23:53:37.407Z,69.60
2022-10-25T23:56:08.553Z,69.60
2022-10-25T23:58:36.912Z,69.60
